Latest Weather Observations for Hobart

IDT60901

Issued at 1:25 pm EDT Saturday 1 November 2014 (issued every 10 minutes, with the page automatically refreshed every 10 minutes)

About weather observations | Map of Hobart area stations | Latest observations for Hobart area | Other Formats
Station Details ID: 094029 Name: HOBART (ELLERSLIE ROAD) Lat: -42.89 Lon: 147.33 Height: 50.5 m
Data from the previous 72 hours. | See also: Recent months at Hobart
Date/Time
EDT
Tmp

°C
App
Tmp
°C
Dew
Point
°C
Rel
Hum
%
Delta-T

°C
Wind Press
QNH
hPa
Press
MSL
hPa
Rain
since
9 am
mm
Dir
 
Spd
km/h
Gust
km/h
Spd
kts
Gust
kts
01/01:00pm 16.3 7.6 2.2 38 6.4 WNW 37 74 20 40 992.3 992.2 0.2
01/12:54pm 15.8 7.2 2.6 41 6.0 NW 37 74 20 40 992.1 992.0 0.2
01/12:38pm 15.6 9.0 4.1 46 5.3 NW 28 46 15 25 992.0 991.9 0.2
01/12:30pm 14.4 6.9 3.5 48 4.9 NW 32 46 17 25 992.1 992.0 0.2
01/12:29pm 14.1 6.5 3.7 49 4.7 NW 33 46 18 25 992.0 991.9 0.2
01/12:00pm 16.3 7.0 0.9 35 6.8 W 39 65 21 35 991.6 991.5 0.2
01/11:53am 16.0 6.9 1.7 38 6.3 W 39 59 21 32 991.6 991.5 0.2
01/11:34am 17.1 9.6 1.2 34 7.1 NW 30 54 16 29 991.5 991.4 0.2
01/11:30am 16.9 9.3 0.6 33 7.1 NW 30 46 16 25 991.4 991.3 0.2
01/11:02am 16.2 8.9 2.4 39 6.2 WNW 30 50 16 27 991.3 991.2 0.2
01/11:00am 16.4 9.4 2.0 38 6.5 W 28 39 15 21 991.4 991.3 0.2
01/10:30am 15.2 7.5 2.3 42 5.7 NW 32 56 17 30 991.2 991.1 0.0
01/10:00am 14.0 6.6 1.7 43 5.4 NNW 30 57 16 31 991.3 991.2 0.0
01/09:39am 14.3 7.3 1.9 43 5.4 NW 28 46 15 25 991.0 990.9 0.0
01/09:30am 15.3 9.8 0.9 37 6.2 NW 19 30 10 16 991.0 990.9 0.0
01/09:00am 15.0 9.8 2.3 42 5.7 NW 19 33 10 18 991.0 990.9 3.2
01/08:30am 13.3 7.6 4.7 56 4.0 NW 24 39 13 21 991.0 990.9 3.2
01/08:02am 14.1 7.4 3.4 48 4.8 WNW 28 56 15 30 990.5 990.4 3.2
01/08:00am 14.0 8.2 4.4 52 4.5 WNW 24 56 13 30 990.5 990.4 3.2
01/07:45am 14.3 7.5 5.3 54 4.3 WNW 30 48 16 26 989.7 989.7 3.2
01/07:30am 13.8 9.8 8.3 69 2.8 NW 19 33 10 18 989.7 989.7 3.2
01/07:00am 13.8 8.5 8.5 70 2.7 NW 26 43 14 23 989.0 989.0 3.2
01/06:30am 13.1 8.6 10.0 81 1.6 NNW 24 35 13 19 988.5 988.5 3.2
01/06:00am 13.1 7.9 10.4 84 1.4 NNW 28 37 15 20 988.6 988.6 3.2
01/05:30am 13.0 9.4 10.7 86 1.2 N 20 30 11 16 988.9 988.9 3.2
01/05:00am 13.2 9.0 9.9 80 1.7 NNW 22 32 12 17 988.9 988.9 2.8
01/04:30am 13.7 11.0 10.5 81 1.7 NW 15 30 8 16 989.4 989.4 1.4
01/04:00am 14.9 10.3 9.5 70 2.8 NW 24 41 13 22 990.7 990.6 0.2
01/03:30am 17.3 13.2 8.0 54 4.7 NW 19 32 10 17 990.9 990.8 0.0
01/03:00am 17.0 14.5 8.1 55 4.6 NW 11 17 6 9 989.9 989.9 0.0
01/02:30am 15.7 13.2 8.0 60 3.9 WNW 11 24 6 13 990.6 990.5 0.0
01/02:00am 15.3 13.5 8.0 61 3.7 WNW 7 11 4 6 990.3 990.2 0.0
01/01:30am 17.1 13.3 7.7 54 4.7 NNW 17 22 9 12 990.6 990.5 0.0
01/01:00am 17.2 13.4 7.6 53 4.9 NNW 17 26 9 14 991.1 991.0 0.0
01/12:30am 16.8 13.8 7.5 54 4.7 NNW 13 26 7 14 991.5 991.4 0.0
01/12:00am 16.2 14.5 7.7 57 4.3 NNW 6 13 3 7 991.8 991.8 0.0
 
Date/Time
EDT
Tmp

°C
App
Tmp
°C
Dew
Point
°C
Rel
Hum
%
Delta-T

°C
Wind Press
QNH
hPa
Press
MSL
hPa
Rain
since
9 am
mm
Dir
 
Spd
km/h
Gust
km/h
Spd
kts
Gust
kts
31/11:30pm 16.2 13.9 7.3 55 4.4 N 9 17 5 9 992.2 992.2 0.0
31/11:00pm 15.5 13.9 8.0 61 3.8 W 6 13 3 7 992.7 992.7 0.0
31/10:30pm 15.9 14.2 8.3 60 3.9 SW 7 11 4 6 993.2 993.2 0.0
31/10:00pm 16.7 15.0 7.4 54 4.7 SSW 6 11 3 6 993.8 993.8 0.0
31/09:30pm 17.2 14.1 7.3 52 5.0 ESE 13 17 7 9 994.3 994.3 0.0
31/09:00pm 17.1 15.6 8.4 56 4.5 S 6 11 3 6 994.4 994.4 0.0
31/08:30pm 18.0 14.7 8.1 52 5.1 ESE 15 24 8 13 994.1 994.1 0.0
31/08:00pm 18.3 16.1 9.2 55 4.8 ESE 11 17 6 9 994.4 994.4 0.0
31/07:30pm 19.6 18.2 9.5 52 5.4 ESE 7 13 4 7 994.0 994.0 0.0
31/07:00pm 20.5 18.1 10.0 51 5.7 NE 13 20 7 11 994.5 994.5 0.0
31/06:30pm 22.6 19.6 9.1 42 7.2 N 15 26 8 14 994.8 994.8 0.0
31/06:00pm 22.9 18.1 9.0 41 7.5 N 24 33 13 18 995.5 995.5 0.0
31/05:30pm 23.4 17.4 8.8 39 7.8 NNW 30 44 16 24 995.7 995.7 0.0
31/05:00pm 22.8 18.3 10.1 44 7.0 NNW 24 35 13 19 996.4 996.4 0.0
31/04:30pm 22.8 19.1 10.3 45 6.9 NW 20 30 11 16 997.2 997.2 0.0
31/04:00pm 22.5 19.1 11.3 49 6.3 NW 20 30 11 16 997.9 997.9 0.0
31/03:30pm 21.4 17.1 10.7 50 5.9 NNW 24 37 13 20 998.9 998.9 0.0
31/03:00pm 20.7 16.3 10.5 52 5.6 NW 24 41 13 22 999.6 999.6 0.0
31/02:30pm 20.0 14.9 9.3 50 5.7 NW 26 39 14 21 999.8 999.8 0.0
31/02:00pm 20.0 13.4 8.4 47 6.1 NNW 33 52 18 28 1000.3 1000.3 0.0
31/01:48pm 18.8 12.9 7.7 48 5.7 NNW 28 46 15 25 1000.2 1000.2 0.0
31/01:30pm 18.9 13.9 8.1 49 5.6 NW 24 37 13 20 1000.4 1000.4 0.0
31/01:00pm 18.0 12.5 7.4 50 5.4 NNW 26 41 14 22 1000.6 1000.6 0.0
31/12:30pm 17.5 11.8 6.9 49 5.3 NNW 26 35 14 19 1001.3 1001.3 0.0
31/12:00pm 17.0 12.4 6.5 50 5.2 NW 20 39 11 21 1001.6 1001.6 0.0
31/11:30am 16.7 11.2 6.1 49 5.2 NNW 24 33 13 18 1001.9 1001.9 0.0
31/11:00am 16.6 11.4 5.4 47 5.4 N 22 37 12 20 1002.6 1002.6 0.0
31/10:30am 16.7 10.8 5.6 48 5.4 N 26 35 14 19 1002.9 1002.9 0.0
31/10:00am 16.5 10.9 5.6 48 5.3 NNW 24 30 13 16 1003.5 1003.5 0.0
31/09:30am 15.1 10.5 5.5 52 4.6 NNW 19 37 10 20 1003.6 1003.6 0.0
31/09:00am 14.4 10.2 5.9 56 4.1 NNW 17 26 9 14 1004.1 1004.1 0.2
31/08:30am 13.9 10.9 6.0 59 3.8 NNW 11 19 6 10 1004.4 1004.4 0.2
31/08:00am 13.2 10.9 7.3 67 2.9 N 9 17 5 9 1004.8 1004.8 0.2
31/07:30am 13.2 12.3 7.7 69 2.7 NNE 2 7 1 4 1004.8 1004.8 0.2
31/07:00am 12.5 11.0 8.3 75 2.1 NE 6 9 3 5 1005.0 1005.0 0.2
31/06:30am 12.2 9.9 7.5 73 2.3 N 9 13 5 7 1005.0 1005.0 0.2
31/06:00am 11.9 9.3 7.6 75 2.1 N 11 20 6 11 1005.0 1005.0 0.2
31/05:30am 11.6 8.6 7.9 78 1.8 NNE 13 17 7 9 1005.0 1005.0 0.2
31/05:00am 11.5 9.0 8.3 81 1.6 NNE 11 15 6 8 1005.1 1005.1 0.2
31/04:30am 11.8 9.1 7.5 75 2.1 NNE 11 17 6 9 1005.4 1005.4 0.2
31/04:00am 12.0 9.3 7.3 73 2.3 NNE 11 15 6 8 1005.8 1005.8 0.2
31/03:30am 11.9 10.1 7.8 76 2.0 NNE 7 11 4 6 1006.1 1006.1 0.2
31/03:00am 12.0 9.8 7.7 75 2.1 NE 9 13 5 7 1006.2 1006.2 0.2
31/02:30am 12.0 10.3 7.7 75 2.1 NNE 6 9 3 5 1006.7 1006.7 0.2
31/02:00am 11.8 10.1 7.5 75 2.1 N 6 9 3 5 1007.0 1007.0 0.2
31/01:30am 12.0 9.8 7.7 75 2.1 NNE 9 13 5 7 1007.4 1007.4 0.2
31/01:00am 12.1 9.8 7.6 74 2.2 NNE 9 15 5 8 1007.8 1007.8 0.2
31/12:30am 12.1 9.8 7.6 74 2.2 N 9 13 5 7 1008.2 1008.3 0.2
31/12:00am 12.3 9.2 7.4 72 2.4 NNW 13 20 7 11 1008.3 1008.4 0.2
 
Date/Time
EDT
Tmp

°C
App
Tmp
°C
Dew
Point
°C
Rel
Hum
%
Delta-T

°C
Wind Press
QNH
hPa
Press
MSL
hPa
Rain
since
9 am
mm
Dir
 
Spd
km/h
Gust
km/h
Spd
kts
Gust
kts
30/11:30pm 12.3 9.2 7.1 70 2.5 N 13 20 7 11 1008.3 1008.4 0.2
30/11:00pm 12.5 9.4 7.4 71 2.5 NW 13 20 7 11 1008.8 1008.9 0.2
30/10:30pm 13.0 9.3 6.1 63 3.3 NNW 15 20 8 11 1008.8 1008.9 0.2
30/10:00pm 13.3 9.9 5.7 60 3.6 N 13 19 7 10 1008.7 1008.8 0.2
30/09:30pm 13.6 8.9 5.0 56 4.0 N 19 24 10 13 1008.7 1008.8 0.2
30/09:00pm 13.6 8.8 4.8 55 4.1 N 19 30 10 16 1008.8 1008.9 0.2
30/08:30pm 13.6 9.5 4.5 54 4.2 NNW 15 24 8 13 1008.5 1008.6 0.2
30/08:00pm 13.7 10.6 5.7 58 3.8 NW 11 20 6 11 1008.4 1008.5 0.2
30/07:30pm 14.1 9.8 5.4 56 4.1 NNW 17 28 9 15 1008.2 1008.3 0.2
30/07:00pm 14.6 10.3 5.3 53 4.4 NW 17 24 9 13 1008.1 1008.2 0.2
30/06:30pm 14.8 10.1 5.3 53 4.5 NNW 19 26 10 14 1007.8 1007.8 0.2
30/06:00pm 15.2 10.7 5.9 54 4.5 NNW 19 26 10 14 1007.8 1007.8 0.2
30/05:30pm 16.2 11.3 4.3 45 5.6 W 19 39 10 21 1007.7 1007.7 0.2
30/05:00pm 17.5 13.9 4.8 43 6.1 W 13 24 7 13 1007.4 1007.4 0.2
30/04:30pm 17.5 13.1 4.5 42 6.2 WNW 17 30 9 16 1007.3 1007.3 0.2
30/04:00pm 18.1 12.7 4.5 40 6.5 W 22 35 12 19 1007.4 1007.4 0.0
30/03:30pm 17.9 14.1 5.9 45 5.9 W 15 35 8 19 1007.1 1007.1 0.0
30/03:00pm 15.5 13.6 9.1 65 3.3 ESE 9 17 5 9 1007.3 1007.3 0.0
30/02:30pm 14.7 11.4 9.7 72 2.6 SE 17 20 9 11 1007.0 1007.0 0.0
30/02:00pm 13.6 10.7 9.5 76 2.1 E 15 17 8 9 1007.0 1007.0 0.0
30/01:30pm 14.0 10.3 10.0 77 2.1 ESE 20 28 11 15 1006.8 1006.8 0.0
30/01:00pm 14.0 10.7 10.8 81 1.7 SE 19 24 10 13 1007.1 1007.1 0.0
30/12:30pm 12.7 10.5 9.4 80 1.7 E 11 17 6 9 1007.2 1007.2 0.0
30/12:00pm 12.4 8.9 10.1 86 1.2 SE 19 24 10 13 1007.2 1007.2 0.0
30/11:30am 12.6 9.1 10.3 86 1.2 SE 19 22 10 12 1007.4 1007.4 0.0
30/11:00am 12.4 8.5 9.5 82 1.5 SE 20 28 11 15 1007.5 1007.5 0.0
30/10:30am 13.9 10.8 7.4 65 3.2 S 13 17 7 9 1007.3 1007.3 0.0
30/10:00am 14.4 10.9 7.1 61 3.6 NW 15 22 8 12 1007.2 1007.2 0.0
30/09:30am 13.8 9.4 7.3 65 3.2 NW 20 30 11 16 1007.0 1007.0 0.0
30/09:00am 13.7 9.3 6.4 61 3.5 NNW 19 30 10 16 1007.0 1007.0 0.0
30/08:30am 13.7 9.3 6.4 61 3.5 NW 19 26 10 14 1007.0 1007.0 0.0
30/08:00am 13.1 9.8 6.4 64 3.2 NNW 13 19 7 10 1007.0 1007.0 0.0
30/07:30am 12.9 9.1 5.9 62 3.3 NNW 15 20 8 11 1006.8 1006.8 0.0
30/07:00am 12.6 10.2 6.8 68 2.8 NNE 9 13 5 7 1006.7 1006.7 0.0
30/06:30am 11.7 9.9 7.1 73 2.2 NNE 6 13 3 7 1006.5 1006.5 0.0
30/06:00am 11.5 6.6 6.9 73 2.2 NNW 22 33 12 18 1005.9 1005.9 0.0
30/05:30am 11.4 6.1 6.8 73 2.2 NNW 24 33 13 18 1005.8 1005.8 0.0
30/05:00am 11.7 6.3 6.4 70 2.5 NNW 24 33 13 18 1005.8 1005.8 0.0
30/04:30am 11.8 6.8 6.3 69 2.6 NNW 22 30 12 16 1005.9 1005.9 0.0
30/04:00am 12.2 7.5 6.1 66 2.9 N 20 30 11 16 1006.1 1006.1 0.0
30/03:30am 12.6 7.0 5.3 61 3.4 N 24 35 13 19 1005.9 1005.9 0.0
30/03:00am 13.0 6.8 4.5 56 3.9 N 26 39 14 21 1006.2 1006.2 0.0
30/02:30am 13.2 7.3 4.0 53 4.2 N 24 37 13 20 1005.9 1005.9 0.0
30/02:00am 13.2 7.8 4.5 55 4.0 NNW 22 33 12 18 1006.1 1006.1 0.0
30/01:30am 13.2 7.9 5.1 58 3.8 NNW 22 43 12 23 1006.4 1006.4 0.0
30/01:00am 13.1 7.6 5.9 61 3.4 NW 24 44 13 24 1006.5 1006.5 0.0
30/12:30am 13.6 7.9 5.1 56 4.0 NNW 24 39 13 21 1006.6 1006.6 0.0
30/12:00am 13.5 8.6 4.9 56 4.0 NW 20 35 11 19 1006.6 1006.6 0.0
 
Date/Time
EDT
Tmp

°C
App
Tmp
°C
Dew
Point
°C
Rel
Hum
%
Delta-T

°C
Wind Press
QNH
hPa
Press
MSL
hPa
Rain
since
9 am
mm
Dir
 
Spd
km/h
Gust
km/h
Spd
kts
Gust
kts
29/11:30pm 14.0 8.6 4.5 52 4.4 NW 22 39 12 21 1006.7 1006.7 0.0
29/11:06pm 14.1 7.5 4.4 52 4.5 NW 28 46 15 25 1006.9 1006.9 0.0
29/11:00pm 14.1 7.2 4.4 52 4.5 NW 30 46 16 25 1006.8 1006.8 0.0
29/10:56pm 14.1 7.5 4.1 51 4.6 NW 28 46 15 25 1006.8 1006.8 0.0
29/10:30pm 13.8 7.9 5.6 57 3.9 NNW 26 37 14 20 1006.8 1006.8 0.0
29/10:00pm 14.0 8.4 5.6 57 4.0 NNW 24 39 13 21 1006.7 1006.7 0.0
29/09:30pm 14.3 9.4 5.2 54 4.3 NW 20 41 11 22 1006.8 1006.8 0.0
29/09:00pm 14.4 9.4 4.8 52 4.5 NW 20 32 11 17 1006.6 1006.6 0.0
29/08:39pm 14.6 8.0 4.3 50 4.8 NW 28 59 15 32 1006.5 1006.5 0.0
29/08:30pm 14.5 8.8 4.7 52 4.6 NW 24 41 13 22 1006.4 1006.4 0.0
29/08:00pm 14.9 9.7 5.5 53 4.5 NW 22 35 12 19 1006.3 1006.3 0.0
29/07:30pm 15.4 8.1 4.5 48 5.1 NW 32 52 17 28 1005.8 1005.8 0.0
29/07:08pm 15.7 9.1 4.1 46 5.4 NW 28 48 15 26 1005.7 1005.7 0.0
29/07:00pm 15.9 10.0 4.1 45 5.5 NW 24 44 13 24 1005.7 1005.7 0.0
29/06:35pm 16.5 9.8 3.9 43 5.9 NW 28 46 15 25 1005.6 1005.6 0.0
29/06:30pm 16.5 9.1 3.9 43 5.9 NNW 32 46 17 25 1005.6 1005.6 0.0
29/06:28pm 16.6 8.3 4.0 43 5.9 WNW 37 50 20 27 1005.5 1005.5 0.0
29/06:00pm 17.4 10.0 3.8 40 6.4 NW 32 61 17 33 1005.8 1005.8 0.0
29/05:30pm 18.6 11.3 4.4 39 6.8 NW 32 57 17 31 1005.8 1005.8 0.0
29/05:12pm 18.7 12.1 4.0 37 7.0 NNW 28 50 15 27 1006.0 1006.0 0.0
29/05:00pm 19.1 14.1 4.6 38 7.0 NNW 20 46 11 25 1006.1 1006.1 0.0
29/04:30pm 19.1 12.2 4.6 38 7.0 NNW 30 54 16 29 1005.7 1005.7 0.0
29/04:00pm 19.0 12.3 3.9 36 7.2 NW 28 52 15 28 1005.8 1005.8 0.0
29/03:30pm 18.8 10.8 3.9 37 7.1 NW 35 56 19 30 1005.9 1005.9 0.0
29/03:00pm 18.6 11.8 5.0 40 6.6 NNW 30 56 16 30 1006.0 1006.0 0.0
29/02:32pm 18.0 11.2 5.0 42 6.3 NNW 30 50 16 27 1006.1 1006.1 0.0
29/02:30pm 18.1 10.9 4.8 41 6.4 NNW 32 48 17 26 1006.2 1006.2 0.0
29/02:01pm 18.2 11.7 4.7 41 6.5 NNW 28 48 15 26 1006.5 1006.5 0.0
29/02:00pm 18.5 12.4 4.6 40 6.7 NNW 26 41 14 22 1006.4 1006.4 0.0
29/01:30pm 16.1 9.5 4.1 45 5.6 NNW 28 46 15 25 1007.0 1007.0 0.0

Latest Capital City Observations: Canberra | Sydney | Melbourne | Brisbane | Adelaide | Perth | Hobart | Darwin

Other Formats:

Comma delimited format used in spreadsheet applications
http://www.bom.gov.au/fwo/IDT60901/IDT60901.94970.axf

JavaScript Object Notation format (JSON) in row-major order
http://www.bom.gov.au/fwo/IDT60901/IDT60901.94970.json